Terminal Aerodrome Forecast
Issued by NWS

Home | Current Version | Previous Version | Text Only | Print | Product List | Glossary Off
Versions: 1 2 3 4 5 6 7 8 9 10 11 12 13 14 15 16 17 18 19 20 21

000
FTUS43 KICT 281032 AAA
TAFHUT
TAF AMD
KHUT 281032Z 2811/0106 15010KT 5SM -SN BKN015
      TEMPO 2811/2815 2SM -SN BR OVC008
     FM281600 14009KT 5SM -SN OVC020
     FM010300 13006KT 2SM -SN BKN004=

USA.gov is the U.S. government's official web portal to all federal, state and local government web resources and services.